Time;durP1;ratioP1;P1;durP2;ratioP2;P2;SDS_P1;SDS_P2;PMS_P1;PMS_P2;Temp;Humidity;BMP_temperature;BMP_pressure;BME280_temperature;BME280_humidity;BME280_pressure;Samples;Min_cycle;Max_cycle;Signal;HPM_P1;HPM_P2
2021/11/21 00:00:12;;;;;;;8.23;3.87;;;;;;;6.72;68.06;99612.52;1729000;82;21520;-61
2021/11/21 00:02:43;;;;;;;8.80;3.57;;;;;;;6.71;68.21;99614.34;1725980;82;21875;-60
2021/11/21 00:05:10;;;;;;;10.90;3.97;;;;;;;6.75;68.17;99613.48;1737643;82;21506;-62
2021/11/21 00:07:39;;;;;;;9.37;3.53;;;;;;;6.80;68.46;99623.05;1720158;82;21042;-59
2021/11/21 00:10:07;;;;;;;7.80;2.40;;;;;;;6.94;68.08;99620.89;1708684;82;21435;-62
2021/11/21 00:12:34;;;;;;;9.00;3.37;;;;;;;7.07;67.77;99628.20;1723242;82;21030;-60
2021/11/21 00:15:05;;;;;;;9.50;3.67;;;;;;;7.12;67.79;99624.52;1724348;82;21045;-61
2021/11/21 00:17:32;;;;;;;6.70;2.87;;;;;;;7.14;67.62;99631.78;1708344;82;21057;-59
2021/11/21 00:19:59;;;;;;;8.83;3.77;;;;;;;7.11;67.60;99633.45;1722491;82;21291;-60
2021/11/21 00:22:26;;;;;;;8.87;3.60;;;;;;;7.10;67.70;99626.53;1725881;82;21086;-60
2021/11/21 00:24:53;;;;;;;10.07;3.90;;;;;;;7.08;67.93;99621.89;1725222;82;21060;-58
2021/11/21 00:27:21;;;;;;;10.05;3.70;;;;;;;7.04;68.16;99623.27;1720638;82;21055;-59
2021/11/21 00:29:50;;;;;;;6.83;3.60;;;;;;;7.04;68.25;99624.59;1704183;83;21504;-59
2021/11/21 00:32:16;;;;;;;7.53;3.00;;;;;;;7.06;68.48;99629.71;1702278;83;21004;-59
2021/11/21 00:34:42;;;;;;;8.48;3.00;;;;;;;7.09;68.41;99622.73;1716812;82;21548;-62
2021/11/21 00:37:09;;;;;;;13.50;4.17;;;;;;;7.08;68.49;99613.94;1720621;82;21085;-60
2021/11/21 00:39:35;;;;;;;10.40;4.22;;;;;;;7.06;68.86;99615.95;1705258;82;20979;-59
2021/11/21 00:42:01;;;;;;;;;;;;;;;7.05;68.94;99610.86;1727632;82;21062;-59
2021/11/21 00:44:28;;;;;;;9.80;4.07;;;;;;;7.04;69.06;99596.77;1706854;82;20106;-58
2021/11/21 00:46:56;;;;;;;11.37;5.93;;;;;;;7.01;69.10;99595.31;1675305;84;21165;-60
2021/11/21 00:49:22;;;;;;;11.65;4.95;;;;;;;7.04;69.32;99595.95;1673883;84;21082;-60
2021/11/21 00:51:49;;;;;;;9.03;3.47;;;;;;;7.02;69.44;99591.64;1687411;83;21098;-58
2021/11/21 00:54:40;;;;;;;;;;;;;;;7.10;69.46;99585.45;1654142;85;21123;-60
2021/11/21 00:56:56;;;;;;;9.50;4.20;;;;;;;7.20;69.41;99589.95;1669758;84;20246;-59
2021/11/21 00:59:24;;;;;;;9.67;3.97;;;;;;;7.23;69.38;99585.28;1675898;84;21056;-60
2021/11/21 01:01:52;;;;;;;8.97;4.03;;;;;;;7.22;69.49;99593.75;1703135;83;21015;-59
2021/11/21 01:04:20;;;;;;;10.63;4.63;;;;;;;7.22;69.57;99585.80;1703577;83;21548;-59
2021/11/21 01:06:46;;;;;;;12.47;5.27;;;;;;;7.20;69.64;99583.33;1671909;84;21089;-60
2021/11/21 01:09:13;;;;;;;;;;;;;;;7.21;69.66;99581.01;1701744;83;21099;-60
2021/11/21 01:11:41;;;;;;;10.87;4.23;;;;;;;7.19;69.94;99575.55;1706476;83;20153;-60
2021/11/21 01:14:09;;;;;;;9.40;4.43;;;;;;;7.10;70.42;99576.17;1706320;83;21018;-62
2021/11/21 01:16:37;;;;;;;9.27;4.03;;;;;;;7.14;70.54;99574.80;1705855;83;21046;-60
2021/11/21 01:19:05;;;;;;;8.50;5.17;;;;;;;7.23;70.41;99572.03;1683800;84;21000;-60
2021/11/21 01:21:31;;;;;;;;;;;;;;;7.25;70.76;99560.73;1708596;83;21631;-59
2021/11/21 01:24:00;;;;;;;5.90;3.63;;;;;;;7.23;70.76;99556.94;1675686;84;20212;-60
2021/11/21 01:26:27;;;;;;;10.83;5.00;;;;;;;7.16;71.21;99563.50;1668504;84;21218;-60
2021/11/21 01:28:53;;;;;;;10.17;4.27;;;;;;;7.16;71.26;99557.39;1703110;83;21146;-60
2021/11/21 01:31:20;;;;;;;8.78;4.28;;;;;;;7.14;71.78;99548.77;1698429;83;21030;-61
2021/11/21 01:33:47;;;;;;;9.37;3.63;;;;;;;7.18;71.53;99544.26;1703214;83;21056;-61
2021/11/21 01:36:15;;;;;;;9.37;4.37;;;;;;;7.25;71.87;99532.39;1705373;83;21038;-59
2021/11/21 01:38:43;;;;;;;9.20;4.63;;;;;;;7.32;72.16;99533.81;1706491;83;21030;-60
2021/11/21 01:41:11;;;;;;;7.80;5.20;;;;;;;7.32;72.56;99522.69;1705080;83;21030;-60
2021/11/21 01:43:41;;;;;;;11.97;5.70;;;;;;;7.32;72.78;99520.55;1705025;83;21611;-62
2021/11/21 01:46:08;;;;;;;7.97;5.30;;;;;;;7.32;73.33;99523.20;1698098;82;21589;-61
2021/11/21 01:48:36;;;;;;;7.17;4.73;;;;;;;7.32;73.66;99524.53;1706677;82;21002;-62
2021/11/21 01:51:07;;;;;;;7.47;4.97;;;;;;;7.35;73.87;99521.52;1702086;83;21106;-59
2021/11/21 01:53:35;;;;;;;7.03;5.20;;;;;;;7.42;73.87;99514.43;1676865;83;21045;-60
2021/11/21 01:56:02;;;;;;;12.17;5.80;;;;;;;7.47;73.77;99512.56;1683911;84;21056;-60
2021/11/21 01:58:30;;;;;;;9.10;5.27;;;;;;;7.50;73.98;99513.52;1700528;83;21593;-61
2021/11/21 02:00:57;;;;;;;9.67;6.07;;;;;;;7.54;73.86;99516.92;1675794;84;21074;-60
2021/11/21 02:03:24;;;;;;;12.03;7.20;;;;;;;7.58;73.83;99503.59;1705745;83;21034;-59
2021/11/21 02:05:52;;;;;;;9.13;4.90;;;;;;;7.64;73.79;99497.22;1702111;83;21117;-61
2021/11/21 02:08:18;;;;;;;7.12;5.45;;;;;;;7.74;73.45;99498.55;1698373;83;21050;-61
2021/11/21 02:10:45;;;;;;;5.73;4.70;;;;;;;7.83;73.30;99501.06;1704838;83;21485;-60
2021/11/21 02:13:12;;;;;;;10.78;5.75;;;;;;;7.86;73.24;99513.44;1703747;82;21025;-58
2021/11/21 02:15:43;;;;;;;9.57;6.50;;;;;;;7.84;73.50;99509.35;1696021;83;21104;-60
2021/11/21 02:18:13;;;;;;;10.77;5.93;;;;;;;7.80;73.46;99511.05;1705237;83;21006;-58
2021/11/21 02:20:45;;;;;;;10.17;6.63;;;;;;;7.80;73.45;99509.72;1701463;83;21026;-58
2021/11/21 02:24:48;;;;;;;10.97;6.90;;;;;;;7.84;73.71;99498.22;1832885;77;23240;-59
2021/11/21 02:27:19;;;;;;;8.70;5.83;;;;;;;7.82;73.85;99496.27;1786236;78;20965;-60
2021/11/21 02:29:45;;;;;;;9.13;6.63;;;;;;;7.73;73.85;99480.16;1796073;78;21080;-60
2021/11/21 02:32:11;;;;;;;10.75;7.17;;;;;;;7.82;74.50;99484.33;1805230;78;21008;-59
2021/11/21 02:34:38;;;;;;;;;;;;;;;7.72;74.82;99481.16;1797327;78;21463;-60
2021/11/21 02:37:09;;;;;;;7.57;6.73;;;;;;;7.67;76.03;99484.91;1810255;78;20230;-59
2021/11/21 02:39:38;;;;;;;13.20;6.90;;;;;;;7.57;76.29;99483.88;1805666;78;21507;-59
2021/11/21 02:42:06;;;;;;;11.43;7.30;;;;;;;7.62;76.46;99478.02;1791790;78;21016;-60
2021/11/21 02:44:32;;;;;;;8.47;6.50;;;;;;;7.71;76.43;99478.22;1782227;78;21000;-60
2021/11/21 02:46:59;;;;;;;11.03;6.87;;;;;;;7.78;76.31;99475.12;1762729;80;21079;-60
2021/11/21 02:49:26;;;;;;;8.37;6.47;;;;;;;7.80;76.55;99472.58;1753939;80;21158;-60
2021/11/21 02:51:53;;;;;;;8.63;6.72;;;;;;;7.87;76.47;99468.64;1761159;80;20958;-58
2021/11/21 02:54:20;;;;;;;12.23;6.87;;;;;;;7.92;76.38;99459.60;1755877;80;21457;-59
2021/11/21 02:56:47;;;;;;;;;;;;;;;8.01;76.10;99455.50;1757224;80;21462;-59
2021/11/21 02:59:13;;;;;;;10.63;7.60;;;;;;;8.06;75.93;99456.56;1752432;80;20148;-61
2021/11/21 03:01:40;;;;;;;10.03;7.55;;;;;;;8.09;75.96;99455.34;1780243;79;20981;-60
2021/11/21 03:04:07;;;;;;;9.40;6.80;;;;;;;8.13;75.84;99451.28;1743936;80;21067;-60
2021/11/21 03:06:37;;;;;;;;;;;;;;;8.10;75.92;99447.67;1767063;80;21000;-60
2021/11/21 03:09:04;;;;;;;8.90;7.27;;;;;;;8.06;76.09;99444.61;1743108;80;20115;-62
2021/11/21 03:11:34;;;;;;;10.57;7.33;;;;;;;7.99;76.44;99447.20;1740838;80;21515;-59
2021/11/21 03:14:05;;;;;;;10.27;7.77;;;;;;;8.02;76.55;99454.47;1738986;80;21067;-60
2021/11/21 03:16:33;;;;;;;11.20;7.23;;;;;;;8.09;76.58;99449.52;1770922;80;21000;-61
2021/11/21 03:18:59;;;;;;;10.30;6.62;;;;;;;8.11;76.60;99441.37;1762666;80;21128;-61
2021/11/21 03:21:27;;;;;;;9.13;6.93;;;;;;;8.14;76.65;99438.34;1765863;80;21051;-58
2021/11/21 03:23:54;;;;;;;12.87;8.03;;;;;;;8.12;76.90;99443.02;1740714;80;21301;-59
2021/11/21 03:26:21;;;;;;;;;;;;;;;8.09;77.22;99444.72;1748875;80;21556;-59
2021/11/21 03:28:48;;;;;;;11.48;8.13;;;;;;;8.10;77.39;99443.69;1756601;80;20101;-58
2021/11/21 03:31:15;;;;;;;8.97;7.23;;;;;;;8.11;77.44;99444.83;1756608;80;20979;-60
2021/11/21 03:33:41;;;;;;;11.00;7.07;;;;;;;8.12;77.73;99449.66;1764620;79;21146;-58
2021/11/21 03:36:08;;;;;;;8.90;7.53;;;;;;;8.10;78.09;99452.98;1768668;80;21013;-57
2021/11/21 03:38:35;;;;;;;10.43;6.23;;;;;;;8.02;78.14;99447.31;1784078;80;21064;-59
2021/11/21 03:41:03;;;;;;;9.10;5.77;;;;;;;8.01;78.40;99443.55;1763422;80;21096;-58
2021/11/21 03:43:30;;;;;;;9.70;7.43;;;;;;;8.06;78.17;99447.75;1755213;80;21049;-58
2021/11/21 03:45:56;;;;;;;;;;;;;;;8.10;78.17;99448.52;1735738;80;21087;-60
2021/11/21 03:48:22;;;;;;;7.73;7.03;;;;;;;8.15;78.20;99445.27;1743574;81;20493;-58
2021/11/21 03:50:49;;;;;;;8.77;6.83;;;;;;;8.13;78.30;99445.97;1724919;81;21057;-59
2021/11/21 03:53:19;;;;;;;10.60;6.97;;;;;;;8.13;78.41;99441.98;1737280;81;21036;-60
2021/11/21 03:55:46;;;;;;;8.17;7.00;;;;;;;8.15;78.46;99441.28;1725295;81;21017;-59
2021/11/21 03:58:14;;;;;;;7.90;7.03;;;;;;;8.21;78.42;99450.30;1726770;81;20970;-60
2021/11/21 04:00:45;;;;;;;7.70;6.90;;;;;;;8.33;78.11;99447.44;1719190;81;21532;-58
2021/11/21 04:03:09;;;;;;;9.13;6.87;;;;;;;8.39;77.88;99442.14;1713569;81;21069;-61
2021/11/21 04:05:37;;;;;;;11.30;7.57;;;;;;;8.41;77.90;99443.28;1734897;81;21018;-60
2021/11/21 04:08:04;;;;;;;9.30;7.37;;;;;;;8.40;77.98;99436.34;1734097;81;21036;-60
2021/11/21 04:10:33;;;;;;;6.30;5.70;;;;;;;8.41;77.99;99438.48;1719102;81;21116;-60
2021/11/21 04:13:01;;;;;;;7.00;6.07;;;;;;;8.43;77.97;99429.84;1724531;81;21100;-59
2021/11/21 04:15:28;;;;;;;8.17;6.83;;;;;;;8.50;77.71;99437.34;1731891;81;21064;-59
2021/11/21 04:17:59;;;;;;;7.37;5.47;;;;;;;8.54;77.62;99438.58;1742256;81;21141;-59
2021/11/21 04:20:26;;;;;;;6.93;6.33;;;;;;;8.48;77.69;99450.00;1736811;81;21034;-59
2021/11/21 04:22:54;;;;;;;7.60;6.73;;;;;;;8.41;77.98;99440.62;1713853;81;21036;-60
2021/11/21 04:25:21;;;;;;;8.17;7.37;;;;;;;8.39;78.02;99446.13;1726147;81;21508;-59
2021/11/21 04:27:48;;;;;;;10.57;6.77;;;;;;;8.44;77.94;99438.95;1709947;81;21025;-60
2021/11/21 04:30:16;;;;;;;;;;;;;;;8.52;77.71;99437.45;1717124;81;21032;-60
2021/11/21 04:32:45;;;;;;;7.17;6.33;;;;;;;8.60;77.47;99437.78;1735504;81;20135;-60
2021/11/21 04:35:16;;;;;;;6.60;5.80;;;;;;;8.63;77.47;99441.91;1736794;81;21128;-60
2021/11/21 04:37:44;;;;;;;8.27;6.60;;;;;;;8.65;77.44;99434.03;1737252;81;21082;-60
2021/11/21 04:40:13;;;;;;;7.80;6.77;;;;;;;8.65;77.46;99438.02;1732918;81;21014;-59
2021/11/21 04:42:41;;;;;;;7.17;6.50;;;;;;;8.68;77.47;99448.27;1735006;80;21012;-59
2021/11/21 04:45:09;;;;;;;7.13;6.53;;;;;;;8.69;77.34;99447.23;1744652;80;21039;-61
2021/11/21 04:47:36;;;;;;;7.43;5.90;;;;;;;8.71;77.24;99447.84;1753357;80;20998;-60
2021/11/21 04:50:05;;;;;;;6.13;5.63;;;;;;;8.77;77.08;99447.56;1761556;80;21081;-60
2021/11/21 04:52:34;;;;;;;6.80;6.20;;;;;;;8.81;77.05;99447.47;1733883;81;21543;-59
2021/11/21 04:55:01;;;;;;;7.97;5.53;;;;;;;8.79;77.08;99452.17;1735413;81;21741;-59
2021/11/21 04:57:28;;;;;;;6.60;6.00;;;;;;;8.73;77.39;99448.98;1700014;81;21438;-60
2021/11/21 04:59:54;;;;;;;6.53;5.87;;;;;;;8.49;77.63;99416.58;1670424;84;21062;-59
2021/11/21 05:02:21;;;;;;;;;;;;;;;8.70;77.84;99450.70;1689936;83;21011;-61
2021/11/21 05:04:47;;;;;;;8.77;6.10;;;;;;;8.72;77.82;99454.81;1672240;83;20185;-60
2021/11/21 05:07:14;;;;;;;6.42;5.83;;;;;;;8.79;77.78;99454.02;1693763;83;21542;-60
2021/11/21 05:09:41;;;;;;;8.03;6.57;;;;;;;8.86;77.58;99457.52;1673817;83;21608;-60
2021/11/21 05:12:08;;;;;;;6.77;6.17;;;;;;;8.86;77.40;99457.52;1670132;83;21516;-61
2021/11/21 05:14:36;;;;;;;9.53;7.57;;;;;;;8.85;77.48;99461.19;1666820;84;21076;-61
2021/11/21 05:17:03;;;;;;;7.33;6.63;;;;;;;8.82;77.54;99457.10;1657786;84;21676;-60
2021/11/21 05:19:30;;;;;;;7.47;6.70;;;;;;;8.81;77.58;99458.11;1658616;84;21104;-59
2021/11/21 05:21:56;;;;;;;6.78;6.08;;;;;;;8.84;77.46;99454.25;1658616;84;21076;-60
2021/11/21 05:24:24;;;;;;;;;;;;;;;8.91;77.28;99437.80;1668683;83;21080;-59
2021/11/21 05:26:53;;;;;;;7.05;6.25;;;;;;;8.98;77.04;99441.81;1692291;83;20111;-60
2021/11/21 05:29:20;;;;;;;7.37;6.67;;;;;;;8.93;77.04;99431.28;1698069;83;21000;-61
2021/11/21 05:31:46;;;;;;;;;;;;;;;8.86;77.13;99430.95;1701265;84;21033;-59
2021/11/21 05:34:14;;;;;;;8.10;7.30;;;;;;;8.75;77.26;99435.80;1695357;82;20137;-60
2021/11/21 05:36:42;;;;;;;7.53;6.83;;;;;;;8.62;77.63;99441.06;1696603;83;21022;-60
2021/11/21 05:39:09;;;;;;;7.70;7.03;;;;;;;8.57;77.82;99442.19;1700241;83;21085;-60
2021/11/21 05:41:36;;;;;;;7.77;7.03;;;;;;;8.56;77.87;99434.70;1687135;83;21029;-61
2021/11/21 05:44:04;;;;;;;9.40;6.50;;;;;;;8.55;77.88;99433.56;1690854;83;21085;-62
2021/11/21 05:46:31;;;;;;;27.73;11.70;;;;;;;8.55;77.90;99441.53;1700229;83;21034;-60
2021/11/21 05:48:57;;;;;;;;;;;;;;;8.53;78.07;99439.10;1701914;83;21148;-60
2021/11/21 05:51:24;;;;;;;9.50;7.10;;;;;;;8.55;78.18;99440.20;1680675;83;20163;-62
2021/11/21 05:53:52;;;;;;;8.83;8.03;;;;;;;8.49;78.37;99446.31;1679212;83;21022;-61
2021/11/21 05:56:20;;;;;;;8.17;7.47;;;;;;;8.48;78.32;99445.50;1689557;81;21221;-60
2021/11/21 05:58:50;;;;;;;8.93;8.13;;;;;;;8.49;78.50;99440.48;1684215;83;21485;-59
2021/11/21 06:01:18;;;;;;;8.87;6.57;;;;;;;8.55;78.59;99430.42;1682525;82;21001;-62
2021/11/21 06:03:45;;;;;;;8.20;6.47;;;;;;;8.69;78.47;99428.63;1670812;84;21068;-60
2021/11/21 06:06:11;;;;;;;7.67;6.90;;;;;;;8.83;78.17;99436.66;1696216;83;21635;-62
2021/11/21 06:08:39;;;;;;;8.63;7.73;;;;;;;8.91;77.91;99419.19;1695590;83;21057;-62
2021/11/21 06:11:05;;;;;;;;;;;;;;;8.92;77.69;99436.27;1696303;83;20990;-60
2021/11/21 06:13:32;;;;;;;8.13;7.10;;;;;;;8.92;77.59;99434.13;1697748;84;20139;-62
2021/11/21 06:16:00;;;;;;;7.63;6.97;;;;;;;8.86;77.68;99424.31;1687005;83;21305;-60
2021/11/21 06:18:27;;;;;;;7.60;6.90;;;;;;;8.89;77.68;99424.73;1690009;83;21521;-62
2021/11/21 06:20:54;;;;;;;7.97;7.28;;;;;;;9.00;77.38;99421.98;1689224;83;21049;-62
2021/11/21 06:23:21;;;;;;;7.20;6.50;;;;;;;9.07;77.09;99422.02;1698927;81;21512;-61
2021/11/21 06:25:48;;;;;;;7.67;7.07;;;;;;;9.09;77.07;99416.80;1726073;81;21005;-62
2021/11/21 06:28:17;;;;;;;10.40;9.48;;;;;;;9.09;77.04;99412.80;1718630;81;21556;-61
2021/11/21 06:30:46;;;;;;;8.83;7.93;;;;;;;9.09;76.97;99418.12;1712208;81;21098;-60
2021/11/21 06:33:14;;;;;;;8.03;7.23;;;;;;;9.13;76.94;99411.89;1726982;81;21005;-61
2021/11/21 06:35:42;;;;;;;8.63;7.73;;;;;;;9.23;76.90;99414.16;1725182;81;21489;-60
2021/11/21 06:38:08;;;;;;;7.57;6.80;;;;;;;9.31;76.55;99423.30;1718362;81;21542;-62
2021/11/21 06:40:34;;;;;;;;;;;;;;;9.34;76.45;99421.54;1721985;81;21520;-61
2021/11/21 06:43:01;;;;;;;8.17;7.40;;;;;;;9.36;76.45;99426.14;1726972;81;20440;-62
2021/11/21 06:45:28;;;;;;;;;;;;;;;9.35;76.58;99429.84;1727049;80;21017;-62
2021/11/21 06:47:54;;;;;;;9.80;8.80;;;;;;;9.40;76.39;99421.23;1749462;80;20126;-60
2021/11/21 06:50:21;;;;;;;9.05;8.15;;;;;;;9.40;76.40;99418.09;1721665;81;21109;-64
2021/11/21 06:52:49;;;;;;;7.67;6.97;;;;;;;9.47;76.33;99412.23;1727101;81;21560;-61
2021/11/21 06:55:20;;;;;;;11.50;8.37;;;;;;;9.62;75.77;99421.36;1723945;80;21155;-63
2021/11/21 06:57:45;;;;;;;7.37;6.67;;;;;;;9.71;75.24;99416.66;1736156;81;21010;-66
2021/11/21 07:00:15;;;;;;;8.77;7.93;;;;;;;9.75;75.20;99413.89;1733196;81;21022;-66
2021/11/21 07:02:42;;;;;;;9.80;8.80;;;;;;;9.80;74.95;99412.77;1732260;81;21013;-64
2021/11/21 07:05:09;;;;;;;9.80;8.70;;;;;;;9.82;74.97;99413.90;1729836;81;21521;-66
2021/11/21 07:07:37;;;;;;;9.37;8.47;;;;;;;9.83;74.78;99415.52;1739728;80;21008;-63
2021/11/21 07:10:06;;;;;;;8.17;7.40;;;;;;;9.85;74.67;99412.98;1742513;80;21051;-65
2021/11/21 07:12:34;;;;;;;7.77;7.07;;;;;;;9.96;74.50;99409.38;1738552;80;21114;-65
2021/11/21 07:15:01;;;;;;;8.53;7.83;;;;;;;10.05;74.11;99412.94;1739917;81;21003;-65
2021/11/21 07:17:28;;;;;;;8.20;7.50;;;;;;;10.10;73.98;99405.67;1701038;83;21014;-65
2021/11/21 07:19:56;;;;;;;8.63;7.87;;;;;;;10.12;73.93;99403.62;1736096;80;21102;-63
2021/11/21 07:22:23;;;;;;;10.30;9.40;;;;;;;10.14;73.41;99410.88;1732478;80;21683;-63
2021/11/21 07:24:50;;;;;;;9.33;8.53;;;;;;;10.15;73.54;99401.84;1707139;81;21180;-63
2021/11/21 07:27:16;;;;;;;;;;;;;;;10.16;73.21;99406.69;1694183;83;21023;-66
2021/11/21 07:29:43;;;;;;;8.77;7.87;;;;;;;10.22;73.08;99407.98;1713233;83;20098;-65
2021/11/21 07:32:10;;;;;;;10.10;9.08;;;;;;;10.25;72.90;99406.77;1689122;83;21053;-65
2021/11/21 07:34:37;;;;;;;9.30;8.40;;;;;;;10.26;72.53;99409.20;1722501;80;21671;-65
2021/11/21 07:37:04;;;;;;;8.70;7.90;;;;;;;10.18;72.31;99411.28;1691392;83;21058;-65
2021/11/21 07:39:31;;;;;;;;;;;;;;;10.12;72.49;99407.61;1715392;82;21304;-64
2021/11/21 07:41:57;;;;;;;8.67;7.60;;;;;;;10.11;72.39;99416.61;1708214;82;20137;-64
2021/11/21 07:44:24;;;;;;;7.87;7.17;;;;;;;10.08;72.54;99411.20;1717038;81;21029;-67
2021/11/21 07:46:52;;;;;;;8.15;7.33;;;;;;;10.17;72.44;99406.97;1719335;82;21040;-64
2021/11/21 07:49:18;;;;;;;11.80;8.50;;;;;;;10.26;72.33;99405.20;1730727;81;21097;-65
2021/11/21 07:51:45;;;;;;;;;;;;;;;10.30;72.12;99409.14;1746653;80;21046;-65
2021/11/21 07:54:11;;;;;;;8.70;7.90;;;;;;;10.33;71.91;99416.69;1729264;80;20135;-64
2021/11/21 07:56:38;;;;;;;9.17;8.37;;;;;;;10.28;72.10;99415.16;1742575;80;20987;-64
2021/11/21 07:59:05;;;;;;;9.43;8.07;;;;;;;10.31;72.29;99412.61;1735171;80;21107;-63
2021/11/21 08:01:32;;;;;;;7.87;7.03;;;;;;;10.39;72.10;99408.90;1743816;80;21050;-64
2021/11/21 08:04:00;;;;;;;10.07;8.77;;;;;;;10.46;71.83;99399.05;1731656;80;21107;-65
2021/11/21 08:06:27;;;;;;;10.38;9.28;;;;;;;10.58;71.25;99413.86;1749986;80;21511;-64
2021/11/21 08:08:54;;;;;;;9.13;8.33;;;;;;;10.55;71.30;99412.93;1752162;80;21558;-65
2021/11/21 08:11:24;;;;;;;10.20;9.20;;;;;;;10.48;71.39;99415.64;1751830;80;21031;-65
2021/11/21 08:13:52;;;;;;;9.70;8.80;;;;;;;10.48;71.38;99406.31;1737531;80;21027;-65
2021/11/21 08:16:19;;;;;;;9.50;8.60;;;;;;;10.47;71.33;99411.33;1740709;80;21633;-66
2021/11/21 08:18:46;;;;;;;9.27;8.37;;;;;;;10.51;71.42;99415.23;1745748;80;21047;-66
2021/11/21 08:21:12;;;;;;;9.45;8.60;;;;;;;10.63;71.04;99415.38;1750821;80;20995;-65
2021/11/21 08:23:39;;;;;;;12.40;8.53;;;;;;;10.69;70.71;99414.53;1724172;80;21009;-65
2021/11/21 08:26:05;;;;;;;9.43;8.58;;;;;;;10.75;70.25;99407.53;1683053;83;21165;-66
2021/11/21 08:28:32;;;;;;;10.60;8.70;;;;;;;10.70;70.38;99418.32;1688155;83;21085;-67
2021/11/21 08:30:59;;;;;;;10.03;9.10;;;;;;;10.69;70.43;99409.20;1725970;81;21086;-66
2021/11/21 08:33:27;;;;;;;9.95;8.33;;;;;;;10.71;70.35;99413.80;1707714;79;21058;-66
2021/11/21 08:35:54;;;;;;;9.10;8.30;;;;;;;10.73;69.65;99410.92;1708608;82;21551;-67
2021/11/21 08:38:22;;;;;;;;;;;;;;;10.73;69.65;99415.73;1705821;82;20978;-65
2021/11/21 08:40:49;;;;;;;10.18;9.23;;;;;;;10.72;69.53;99412.78;1709480;82;20155;-66
2021/11/21 08:43:15;;;;;;;9.10;8.00;;;;;;;10.64;69.70;99421.84;1704958;82;20999;-65
2021/11/21 08:45:42;;;;;;;8.83;8.03;;;;;;;10.70;69.44;99415.66;1727815;81;21083;-66
2021/11/21 08:48:11;;;;;;;8.67;7.77;;;;;;;10.78;69.25;99412.45;1752540;80;21016;-66
2021/11/21 08:50:37;;;;;;;9.70;8.77;;;;;;;10.83;68.97;99404.12;1739099;80;21435;-64
2021/11/21 08:53:04;;;;;;;7.85;7.03;;;;;;;10.84;68.83;99407.07;1734646;81;21036;-64
2021/11/21 08:55:31;;;;;;;9.10;8.23;;;;;;;10.87;68.46;99403.19;1732285;80;21006;-64
2021/11/21 08:57:58;;;;;;;7.77;7.07;;;;;;;10.88;67.95;99392.80;1695469;82;21132;-66
2021/11/21 09:00:24;;;;;;;;;;;;;;;10.86;67.52;99405.01;1702014;82;21061;-63
2021/11/21 09:02:51;;;;;;;11.13;7.97;;;;;;;10.80;66.71;99405.87;1699234;82;20139;-64
2021/11/21 09:05:18;;;;;;;;;;;;;;;10.70;67.24;99408.99;1703720;83;21041;-65
2021/11/21 09:07:45;;;;;;;9.13;8.25;;;;;;;10.67;67.53;99395.27;1700064;83;20366;-67
2021/11/21 09:10:16;;;;;;;9.40;7.20;;;;;;;10.62;67.89;99396.41;1710906;82;21035;-65
2021/11/21 09:12:44;;;;;;;7.87;7.07;;;;;;;10.72;67.79;99404.79;1715693;81;20977;-64
2021/11/21 09:15:16;;;;;;;8.33;7.53;;;;;;;10.84;67.42;99400.93;1720401;81;20986;-67
2021/11/21 09:17:46;;;;;;;10.10;8.10;;;;;;;10.91;67.20;99399.05;1707718;81;21014;-63
2021/11/21 09:20:14;;;;;;;9.03;8.13;;;;;;;10.88;67.33;99390.95;1717116;81;21056;-66
2021/11/21 09:22:41;;;;;;;9.60;8.50;;;;;;;10.86;67.44;99392.20;1680942;83;21060;-64
2021/11/21 09:25:09;;;;;;;12.13;8.17;;;;;;;10.84;67.63;99392.94;1672559;83;21913;-66
2021/11/21 09:27:36;;;;;;;9.67;8.67;;;;;;;10.81;67.60;99398.19;1674457;83;21064;-65
2021/11/21 09:30:06;;;;;;;9.07;8.23;;;;;;;10.83;67.76;99389.46;1698404;82;21086;-65
2021/11/21 09:32:34;;;;;;;9.40;8.43;;;;;;;10.86;67.72;99396.20;1706652;82;20987;-67
2021/11/21 09:35:02;;;;;;;9.77;7.50;;;;;;;10.94;67.66;99396.47;1716952;81;21039;-66
2021/11/21 09:37:29;;;;;;;7.83;7.13;;;;;;;11.00;67.36;99395.11;1707539;81;21063;-65
2021/11/21 09:39:56;;;;;;;10.57;8.60;;;;;;;11.05;67.33;99387.27;1727033;81;21510;-65
2021/11/21 09:42:23;;;;;;;12.40;9.00;;;;;;;11.05;67.34;99387.27;1709795;81;21004;-64
2021/11/21 09:44:51;;;;;;;9.40;8.47;;;;;;;11.07;67.21;99378.53;1722375;81;21507;-63
2021/11/21 09:47:18;;;;;;;8.33;7.57;;;;;;;11.03;67.07;99383.99;1746127;81;21039;-65
2021/11/21 09:49:45;;;;;;;8.77;7.87;;;;;;;11.01;67.00;99384.73;1742124;81;21538;-63
2021/11/21 09:52:17;;;;;;;8.63;7.77;;;;;;;10.98;67.09;99389.17;1731802;81;21054;-65
2021/11/21 09:54:43;;;;;;;9.00;8.17;;;;;;;10.95;67.30;99384.78;1726882;81;22196;-68
2021/11/21 09:57:11;;;;;;;10.78;7.70;;;;;;;10.97;67.20;99382.72;1710709;81;21604;-65
2021/11/21 10:00:00;;;;;;;9.43;8.23;;;;;;;11.04;66.83;99377.64;1705804;82;21355;-65
2021/11/21 10:02:34;;;;;;;13.90;8.47;;;;;;;11.07;66.75;99379.86;1737138;81;21034;-64
2021/11/21 10:05:06;;;;;;;11.45;8.93;;;;;;;11.06;66.56;99374.24;1749992;80;21418;-65
2021/11/21 10:07:35;;;;;;;10.23;8.07;;;;;;;11.06;66.46;99368.91;1736514;80;21670;-64
2021/11/21 10:10:07;;;;;;;9.55;7.45;;;;;;;11.06;66.56;99373.44;1740928;80;21392;-63
2021/11/21 10:12:38;;;;;;;10.60;8.38;;;;;;;11.08;66.28;99370.84;1747507;81;21142;-63
2021/11/21 10:15:17;;;;;;;11.28;10.18;;;;;;;11.07;66.37;99366.53;1752187;80;21068;-63
2021/11/21 10:17:50;;;;;;;8.55;7.75;;;;;;;11.07;66.47;99371.05;1714026;82;21033;-65
2021/11/21 10:20:25;;;;;;;11.80;7.00;;;;;;;11.04;66.53;99369.64;1725381;81;21043;-65
2021/11/21 10:22:57;;;;;;;7.17;6.07;;;;;;;11.08;66.69;99367.37;1746298;80;21081;-66
2021/11/21 10:25:43;;;;;;;8.28;7.40;;;;;;;11.11;66.72;99360.25;1743760;80;21099;-64
2021/11/21 10:28:28;;;;;;;7.47;6.80;;;;;;;11.07;66.61;99361.20;1751402;81;21042;-63
2021/11/21 10:31:20;;;;;;;8.60;7.70;;;;;;;11.06;66.65;99350.23;1717865;81;21075;-64
2021/11/21 10:33:55;;;;;;;8.23;7.47;;;;;;;11.05;66.65;99361.12;1717075;81;21011;-64
2021/11/21 10:36:31;;;;;;;10.07;8.53;;;;;;;11.05;66.66;99347.78;1722329;81;20994;-64
2021/11/21 10:39:07;;;;;;;7.90;7.10;;;;;;;11.08;66.63;99348.17;1747701;80;21513;-66
2021/11/21 10:41:38;;;;;;;8.88;7.97;;;;;;;11.11;66.42;99344.25;1748371;82;20991;-64
2021/11/21 10:44:20;;;;;;;7.47;6.77;;;;;;;11.12;66.34;99345.09;1726371;81;21488;-65
2021/11/21 10:46:55;;;;;;;7.20;6.57;;;;;;;11.17;66.12;99335.89;1706453;82;21118;-65
2021/11/21 10:49:36;;;;;;;8.13;7.23;;;;;;;11.24;65.76;99342.00;1696795;82;20980;-65
2021/11/21 10:52:14;;;;;;;7.67;6.97;;;;;;;11.29;65.62;99335.51;1703781;81;21593;-65
2021/11/21 10:54:46;;;;;;;8.00;7.20;;;;;;;11.28;65.52;99340.03;1721020;81;21090;-64
2021/11/21 10:57:18;;;;;;;8.23;7.40;;;;;;;11.28;65.49;99330.70;1701532;81;21546;-64
2021/11/21 11:00:06;;;;;;;8.98;8.18;;;;;;;11.29;65.61;99336.84;1700453;82;21026;-64
2021/11/21 11:02:31;;;;;;;11.13;8.43;;;;;;;11.24;66.05;99345.48;1722236;81;21454;-64
2021/11/21 11:05:02;;;;;;;8.80;7.97;;;;;;;11.16;66.81;99342.28;1716382;81;21582;-64
2021/11/21 11:07:35;;;;;;;7.93;7.13;;;;;;;11.05;67.58;99341.12;1732195;81;20987;-66
2021/11/21 11:10:05;;;;;;;8.13;7.40;;;;;;;10.96;68.36;99338.41;1725808;81;21125;-65
2021/11/21 11:12:33;;;;;;;10.60;9.50;;;;;;;10.87;69.25;99335.20;1716621;81;21110;-66
2021/11/21 11:14:59;;;;;;;11.40;8.13;;;;;;;10.71;70.14;99333.84;1717439;81;21019;-66
2021/11/21 11:17:28;;;;;;;9.18;8.38;;;;;;;10.53;70.82;99330.57;1727131;81;21051;-65
2021/11/21 11:20:00;;;;;;;9.48;8.58;;;;;;;10.42;71.55;99328.58;1709700;81;21056;-65
2021/11/21 11:22:29;;;;;;;10.53;8.93;;;;;;;10.33;72.04;99324.80;1726026;81;21052;-66
2021/11/21 11:25:00;;;;;;;8.70;7.80;;;;;;;10.33;72.35;99319.99;1712340;81;21514;-62
2021/11/21 11:27:45;;;;;;;9.00;8.03;;;;;;;10.39;72.58;99313.00;1734626;81;21554;-65
2021/11/21 11:30:13;;;;;;;8.43;7.60;;;;;;;10.42;72.46;99316.59;1727799;81;21165;-64
2021/11/21 11:32:43;;;;;;;8.60;7.70;;;;;;;10.42;71.87;99320.05;1720152;81;21569;-63
2021/11/21 11:35:23;;;;;;;8.73;7.93;;;;;;;10.39;71.32;99313.00;1708958;81;21094;-64
2021/11/21 11:37:53;;;;;;;9.30;8.40;;;;;;;10.33;71.04;99315.48;1723077;81;21015;-66
2021/11/21 11:40:57;;;;;;;8.97;8.07;;;;;;;10.28;70.71;99306.45;1729167;81;21057;-66
2021/11/21 11:43:35;;;;;;;10.03;8.27;;;;;;;10.23;70.67;99304.44;1710344;81;21051;-64
2021/11/21 11:46:17;;;;;;;11.40;8.53;;;;;;;10.28;70.59;99314.45;1711083;81;21570;-65
2021/11/21 11:48:52;;;;;;;8.10;7.37;;;;;;;10.39;70.21;99309.00;1717302;82;20995;-62